SV1EML-13 Weather Reports


Display with metric or nautical units.
time (UTC)temp
F
wind
direction
speed
MPH
gust
MPH
rain 1hr
in
rain 24hr
in
rain mn
in
humidity
%
barometer
mb
20260906094024 94 0.0 0.0 0.00 0.00 0.00 52 1016.7
20260906085524 92 0.0 0.0 0.00 0.00 0.00 58 1017.0
20260906081025 94 0.0 0.0 0.00 0.00 0.00 36 1017.1
20260906072524 91 0.0 0.0 0.00 0.00 0.00 39 1017.0
20260906064024 88 0.0 0.0 0.00 0.00 0.00 41 1016.7
20260906055524 85 0.0 0.0 0.00 0.00 0.00 46 1016.3
20260906051024 82 0.0 0.0 0.00 0.00 0.00 50 1016.2
20260906042524 80 0.0 0.0 0.00 0.00 0.00 50 1016.2
20260906034024 79 0.0 0.0 0.00 0.00 0.00 49 1015.8
20260906025524 80 0.0 0.0 0.00 0.00 0.00 47 1015.5
20260906021024 80 0.0 0.0 0.00 0.00 0.00 46 1015.4
20260906012524 81 0.0 0.0 0.00 0.00 0.00 45 1015.5
20260906004024 81 0.0 0.0 0.00 0.00 0.00 45 1015.6
20260905235524 82 0.0 0.0 0.00 0.00 0.00 42 1015.6
20260905231024 83 0.0 0.0 0.00 0.00 0.00 40 1016.0
20260905222524 84 0.0 0.0 0.00 0.00 0.00 43 1016.2
20260905214024 84 0.0 0.0 0.00 0.00 0.00 41 1016.2
20260905205524 85 0.0 0.0 0.00 0.00 0.00 41 1016.2
20260905201025 86 0.0 0.0 0.00 0.00 0.00 39 1016.1
20260905192524 86 0.0 0.0 0.00 0.00 0.00 38 1016.2
20260905184026 87 0.0 0.0 0.00 0.00 0.00 37 1016.2
20260905175524 88 0.0 0.0 0.00 0.00 0.00 37 1015.8
20260905171024 88 0.0 0.0 0.00 0.00 0.00 36 1015.3
20260905162526 89 0.0 0.0 0.00 0.00 0.00 33 1015.1
20260905154024 91 0.0 0.0 0.00 0.00 0.00 33 1015.4
20260905145524 93 0.0 0.0 0.00 0.00 0.00 32 1015.3
20260905141024 95 0.0 0.0 0.00 0.00 0.00 32 1015.1
20260905132524 95 0.0 0.0 0.00 0.00 0.00 33 1015.3
20260905124024 95 0.0 0.0 0.00 0.00 0.00 32 1015.4
20260905115524 95 0.0 0.0 0.00 0.00 0.00 34 1015.8
20260905111024 95 0.0 0.0 0.00 0.00 0.00 34 1016.0
20260905102524 94 0.0 0.0 0.00 0.00 0.00 34 1016.2